createdAt,value
2022-09-13T00:02:20.967Z,80.66
2022-09-13T00:04:48.113Z,81.26
2022-09-13T00:07:15.279Z,81.13
2022-09-13T00:09:42.442Z,79.90
2022-09-13T00:12:09.651Z,79.83
2022-09-13T00:14:36.847Z,79.96
2022-09-13T00:17:04.132Z,79.76
2022-09-13T00:19:31.287Z,81.43
2022-09-13T00:21:58.408Z,82.13
2022-09-13T00:24:25.544Z,82.08
2022-09-13T00:26:52.700Z,80.54
2022-09-13T00:29:20.396Z,80.56
2022-09-13T00:31:47.634Z,82.19
2022-09-13T00:34:14.829Z,82.47
2022-09-13T00:36:42.012Z,81.75
2022-09-13T00:39:12.987Z,80.63
2022-09-13T00:41:40.267Z,80.34
2022-09-13T00:44:45.577Z,80.79
2022-09-13T00:47:18.719Z,80.65
2022-09-13T00:49:50.603Z,80.98
2022-09-13T00:52:22.730Z,82.37
2022-09-13T00:54:57.244Z,81.18
2022-09-13T00:57:25.740Z,80.32
2022-09-13T01:00:14.798Z,82.63
2022-09-13T01:02:47.089Z,83.76
2022-09-13T01:05:17.107Z,83.62
2022-09-13T01:07:44.576Z,84.89
2022-09-13T01:10:12.288Z,84.02
2022-09-13T01:12:56.250Z,84.85
2022-09-13T01:15:23.399Z,83.14
2022-09-13T01:17:52.849Z,84.77
2022-09-13T01:20:25.643Z,84.61
2022-09-13T01:23:08.065Z,85.52
2022-09-13T01:25:56.166Z,84.50
2022-09-13T01:28:48.134Z,86.27
2022-09-13T01:31:23.978Z,85.11
2022-09-13T01:34:37.374Z,84.47
2022-09-13T01:37:21.608Z,86.19
2022-09-13T01:40:17.415Z,87.53
2022-09-13T01:42:45.039Z,87.10
2022-09-13T01:45:18.212Z,86.53
2022-09-13T01:48:01.167Z,87.38
2022-09-13T01:50:43.197Z,87.69
2022-09-13T01:53:32.085Z,89.22
2022-09-13T01:56:03.633Z,85.01
2022-09-13T01:58:59.636Z,89.88
2022-09-13T02:01:39.788Z,84.39
2022-09-13T02:04:13.164Z,86.54
2022-09-13T02:06:50.251Z,87.52
2022-09-13T02:09:25.913Z,87.50
2022-09-13T02:12:09.074Z,89.47
2022-09-13T02:14:38.974Z,85.68
2022-09-13T02:17:11.336Z,84.68
2022-09-13T02:19:43.723Z,88.90
2022-09-13T02:22:15.412Z,90.18
2022-09-13T02:24:46.102Z,89.41
2022-09-13T02:27:19.565Z,91.67
2022-09-13T02:29:50.982Z,90.74
2022-09-13T02:32:38.318Z,91.69
2022-09-13T02:35:11.708Z,90.99
2022-09-13T02:37:41.670Z,90.71
2022-09-13T02:40:17.228Z,90.71
2022-09-13T02:42:56.469Z,91.42
2022-09-13T02:45:33.077Z,89.86
2022-09-13T02:48:04.469Z,89.34
2022-09-13T02:50:57.888Z,89.56
2022-09-13T02:53:53.242Z,89.54
2022-09-13T02:56:24.046Z,88.44
2022-09-13T02:59:19.109Z,88.91
2022-09-13T03:02:01.889Z,89.91
2022-09-13T03:04:29.243Z,89.65
2022-09-13T03:06:56.322Z,88.68
2022-09-13T03:09:24.016Z,89.12
2022-09-13T03:12:09.311Z,89.70
2022-09-13T03:14:54.941Z,90.41
2022-09-13T03:17:34.532Z,91.42
2022-09-13T03:20:14.788Z,95.00
2022-09-13T03:23:16.328Z,95.86
2022-09-13T03:25:46.345Z,95.59
2022-09-13T03:28:25.000Z,93.47
2022-09-13T03:31:21.540Z,93.45
2022-09-13T03:34:12.249Z,91.22
2022-09-13T03:36:48.345Z,93.48
2022-09-13T03:39:33.641Z,96.10
2022-09-13T03:42:06.232Z,92.66
2022-09-13T03:44:36.727Z,93.01
2022-09-13T03:47:06.408Z,90.65
2022-09-13T03:49:37.565Z,94.14
2022-09-13T03:52:05.018Z,98.22
2022-09-13T03:54:36.706Z,98.95
2022-09-13T03:57:08.670Z,96.56
2022-09-13T03:59:38.567Z,93.51
2022-09-13T04:02:08.719Z,93.37
2022-09-13T04:04:35.889Z,92.16
2022-09-13T04:07:04.202Z,96.02
2022-09-13T04:09:31.812Z,94.26
2022-09-13T04:11:58.954Z,96.07
2022-09-13T04:14:28.902Z,97.09
2022-09-13T04:16:57.403Z,95.87
2022-09-13T04:19:25.719Z,90.89
2022-09-13T04:21:54.693Z,89.58
2022-09-13T04:24:27.827Z,89.09
2022-09-13T04:26:56.221Z,91.35
2022-09-13T04:29:25.410Z,92.98
2022-09-13T04:31:54.123Z,96.14
2022-09-13T04:34:24.541Z,95.22
2022-09-13T04:36:52.849Z,94.05
2022-09-13T04:39:20.657Z,94.18
2022-09-13T04:41:48.715Z,96.57
2022-09-13T04:44:17.349Z,98.16
2022-09-13T04:46:48.143Z,99.86
2022-09-13T04:49:16.899Z,99.34
2022-09-13T04:51:44.025Z,98.34
2022-09-13T04:54:15.496Z,99.48
2022-09-13T04:56:44.031Z,100.00
2022-09-13T04:59:12.078Z,100.00
2022-09-13T05:01:40.347Z,100.00
2022-09-13T05:04:07.951Z,100.00
2022-09-13T05:06:35.614Z,98.35
2022-09-13T05:09:03.735Z,99.71
2022-09-13T05:11:31.317Z,100.00
2022-09-13T05:14:00.164Z,96.97
2022-09-13T05:16:32.503Z,96.72
2022-09-13T05:19:00.476Z,96.81
2022-09-13T05:21:28.307Z,95.07
2022-09-13T05:23:56.225Z,93.86
2022-09-13T05:26:25.213Z,92.62
2022-09-13T05:28:52.345Z,94.02
2022-09-13T05:31:24.563Z,95.44
2022-09-13T05:33:59.047Z,96.97
2022-09-13T05:36:26.443Z,98.25
2022-09-13T05:39:12.214Z,99.22
2022-09-13T05:41:42.059Z,100.00
2022-09-13T05:44:13.348Z,100.00
2022-09-13T05:46:42.271Z,100.00
2022-09-13T05:49:09.379Z,100.00
2022-09-13T05:51:36.488Z,100.00
2022-09-13T05:54:03.599Z,100.00
2022-09-13T05:56:32.045Z,97.93
2022-09-13T05:58:59.130Z,97.47
2022-09-13T06:01:29.023Z,98.08
2022-09-13T06:03:58.706Z,99.81
2022-09-13T06:06:26.248Z,100.00
2022-09-13T06:08:54.999Z,100.00
2022-09-13T06:11:22.819Z,100.00
2022-09-13T06:13:50.750Z,100.00
2022-09-13T06:16:17.986Z,100.00
2022-09-13T06:18:45.535Z,100.00
2022-09-13T06:21:18.710Z,99.56
2022-09-13T06:23:53.969Z,99.36
2022-09-13T06:26:23.796Z,100.00
2022-09-13T06:28:53.239Z,99.14
2022-09-13T06:31:22.937Z,100.00
2022-09-13T06:33:57.361Z,100.00
2022-09-13T06:36:24.544Z,100.00
2022-09-13T06:38:51.626Z,100.00
2022-09-13T06:41:22.426Z,100.00
2022-09-13T06:44:00.147Z,98.66
2022-09-13T06:46:29.357Z,98.35
2022-09-13T06:49:00.241Z,96.48
2022-09-13T06:51:29.574Z,95.95
2022-09-13T06:53:56.902Z,98.01
2022-09-13T06:56:26.625Z,96.57
2022-09-13T06:59:02.759Z,95.58
2022-09-13T07:01:32.608Z,95.54
2022-09-13T07:04:19.428Z,95.83
2022-09-13T07:06:48.800Z,95.51
2022-09-13T07:09:18.146Z,97.04
2022-09-13T07:11:47.021Z,95.46
2022-09-13T07:14:23.250Z,97.03
2022-09-13T07:16:51.749Z,96.94
2022-09-13T07:19:22.789Z,96.27
2022-09-13T07:21:50.511Z,93.50
2022-09-13T07:24:19.311Z,91.88
2022-09-13T07:26:46.764Z,97.55
2022-09-13T07:29:16.329Z,95.21
2022-09-13T07:31:46.162Z,100.00
2022-09-13T07:34:16.305Z,100.00
2022-09-13T07:36:43.517Z,100.00
2022-09-13T07:39:14.506Z,100.00
2022-09-13T07:41:42.976Z,100.00
2022-09-13T07:44:11.580Z,100.00
2022-09-13T07:46:45.677Z,100.00
2022-09-13T07:49:16.748Z,100.00
2022-09-13T07:51:44.329Z,100.00
2022-09-13T07:54:14.622Z,97.66
2022-09-13T07:56:42.365Z,95.11
2022-09-13T07:59:17.171Z,89.93
2022-09-13T08:01:49.040Z,89.80
2022-09-13T08:04:19.081Z,89.03
2022-09-13T08:06:46.915Z,88.98
2022-09-13T08:09:15.434Z,90.36
2022-09-13T08:11:48.739Z,90.57
2022-09-13T08:14:17.864Z,89.26
2022-09-13T08:16:45.282Z,90.79
2022-09-13T08:19:15.744Z,92.92
2022-09-13T08:21:44.139Z,89.15
2022-09-13T08:24:16.999Z,89.63
2022-09-13T08:26:44.633Z,89.41
2022-09-13T08:29:13.210Z,89.07
2022-09-13T08:31:40.393Z,91.11
2022-09-13T08:34:11.666Z,92.14
2022-09-13T08:36:40.249Z,90.59
2022-09-13T08:39:07.579Z,88.56
2022-09-13T08:41:41.917Z,82.43
2022-09-13T08:44:26.442Z,79.22
2022-09-13T08:47:15.328Z,80.43
2022-09-13T08:49:47.719Z,80.99
2022-09-13T08:52:41.845Z,77.01
2022-09-13T08:55:35.010Z,91.31
2022-09-13T08:58:28.706Z,93.37
2022-09-13T09:01:06.445Z,95.34
2022-09-13T09:03:49.108Z,96.81
2022-09-13T09:06:17.698Z,97.08
2022-09-13T09:08:52.384Z,96.49
2022-09-13T09:11:31.337Z,94.52
2022-09-13T09:14:15.480Z,95.37
2022-09-13T09:16:55.386Z,94.99
2022-09-13T09:19:34.399Z,93.95
2022-09-13T09:22:13.155Z,93.42
2022-09-13T09:24:44.866Z,93.22
2022-09-13T09:27:15.995Z,92.99
2022-09-13T09:29:44.573Z,94.23
2022-09-13T09:32:20.237Z,93.17
2022-09-13T09:35:08.972Z,92.10
2022-09-13T09:37:37.663Z,95.17
2022-09-13T09:40:10.363Z,96.08
2022-09-13T09:42:49.025Z,98.90
2022-09-13T09:45:33.212Z,99.77
2022-09-13T09:48:07.119Z,98.97
2022-09-13T09:50:39.110Z,97.47
2022-09-13T09:53:09.771Z,95.02
2022-09-13T09:55:46.579Z,95.57
2022-09-13T09:58:18.105Z,97.44
2022-09-13T10:00:54.841Z,100.00
2022-09-13T10:03:31.551Z,100.00
2022-09-13T10:06:28.260Z,100.00
2022-09-13T10:09:21.899Z,100.00
2022-09-13T10:11:52.928Z,100.00
2022-09-13T10:14:42.726Z,100.00
2022-09-13T10:17:21.165Z,100.00
2022-09-13T10:19:59.622Z,100.00
2022-09-13T10:22:28.791Z,100.00
2022-09-13T10:24:56.052Z,100.00
2022-09-13T10:27:37.824Z,100.00
2022-09-13T10:30:06.424Z,100.00
2022-09-13T10:32:33.998Z,100.00
2022-09-13T10:35:16.419Z,100.00
2022-09-13T10:37:45.261Z,100.00
2022-09-13T10:40:30.189Z,100.00
2022-09-13T10:42:59.473Z,100.00
2022-09-13T10:45:27.879Z,100.00
2022-09-13T10:48:03.045Z,100.00
2022-09-13T10:50:35.846Z,100.00
2022-09-13T10:53:05.142Z,100.00
2022-09-13T10:55:33.394Z,100.00
2022-09-13T10:58:03.349Z,100.00
2022-09-13T11:01:13.365Z,100.00
2022-09-13T11:03:46.601Z,100.00
2022-09-13T11:06:25.607Z,100.00
2022-09-13T11:09:10.783Z,100.00
2022-09-13T11:12:00.394Z,100.00
2022-09-13T11:14:48.601Z,100.00
2022-09-13T11:17:25.743Z,100.00
2022-09-13T11:20:18.750Z,100.00
2022-09-13T11:22:58.456Z,100.00
2022-09-13T11:25:58.219Z,100.00
2022-09-13T11:28:30.926Z,100.00
2022-09-13T11:31:10.147Z,100.00
2022-09-13T11:33:37.067Z,100.00
2022-09-13T11:36:33.248Z,100.00
2022-09-13T11:39:16.811Z,100.00
2022-09-13T11:42:16.567Z,94.99
2022-09-13T11:45:06.605Z,96.00
2022-09-13T11:47:57.931Z,94.66
2022-09-13T11:50:28.556Z,95.85
2022-09-13T11:53:07.867Z,98.13
2022-09-13T11:55:48.008Z,100.00
2022-09-13T11:58:23.145Z,99.51
2022-09-13T12:00:59.124Z,100.00
2022-09-13T12:03:31.891Z,99.14
2022-09-13T12:06:08.097Z,100.00
2022-09-13T12:08:36.674Z,95.43
2022-09-13T12:11:16.089Z,93.86
2022-09-13T12:14:00.189Z,89.88
2022-09-13T12:16:48.681Z,92.95
2022-09-13T12:19:30.120Z,87.44
2022-09-13T12:22:00.907Z,86.78
2022-09-13T12:24:38.031Z,85.60
2022-09-13T12:27:42.770Z,86.62
2022-09-13T12:30:22.060Z,88.21
2022-09-13T12:32:50.288Z,85.70
2022-09-13T12:35:25.859Z,82.86
2022-09-13T12:38:31.549Z,86.60
2022-09-13T12:41:12.931Z,84.38
2022-09-13T12:44:09.954Z,88.13
2022-09-13T12:46:55.279Z,83.78
2022-09-13T12:49:44.774Z,86.21
2022-09-13T12:52:37.993Z,84.69
2022-09-13T12:55:45.977Z,84.77
2022-09-13T12:58:46.494Z,87.80
2022-09-13T13:01:22.770Z,85.91
2022-09-13T13:03:54.491Z,86.15
2022-09-13T13:06:38.266Z,86.08
2022-09-13T13:09:28.742Z,85.64
2022-09-13T13:11:58.355Z,85.61
2022-09-13T13:14:29.354Z,81.54
2022-09-13T13:17:34.679Z,82.70
2022-09-13T13:20:39.211Z,79.93
2022-09-13T13:23:27.639Z,80.71
2022-09-13T13:25:57.958Z,77.12
2022-09-13T13:28:43.032Z,76.84
2022-09-13T13:31:21.950Z,76.60
2022-09-13T13:33:52.014Z,76.62
2022-09-13T13:36:24.545Z,73.97
2022-09-13T13:38:53.651Z,75.82
2022-09-13T13:41:32.841Z,76.78
2022-09-13T13:44:01.142Z,77.17
2022-09-13T13:46:32.175Z,75.50
2022-09-13T13:49:31.250Z,77.06
2022-09-13T13:52:10.668Z,72.42
2022-09-13T13:54:50.318Z,74.14
2022-09-13T13:57:34.062Z,75.08
2022-09-13T14:00:19.238Z,76.90
2022-09-13T14:03:10.044Z,76.10
2022-09-13T14:06:09.080Z,73.53
2022-09-13T14:08:43.057Z,75.31
2022-09-13T14:11:44.200Z,71.69
2022-09-13T14:14:43.677Z,72.90
2022-09-13T14:17:41.533Z,71.89
2022-09-13T14:20:16.861Z,72.97
2022-09-13T14:22:43.957Z,71.94
2022-09-13T14:25:23.513Z,72.06
2022-09-13T14:27:58.907Z,73.49
2022-09-13T14:30:35.368Z,72.16
2022-09-13T14:33:05.216Z,71.70
2022-09-13T14:35:35.693Z,71.38
2022-09-13T14:38:30.875Z,70.73
2022-09-13T14:41:01.489Z,70.17
2022-09-13T14:43:30.544Z,72.15
2022-09-13T14:46:06.823Z,70.59
2022-09-13T14:48:48.009Z,66.45
2022-09-13T14:51:26.545Z,62.92
2022-09-13T14:54:19.793Z,62.32
2022-09-13T14:56:52.437Z,64.65
2022-09-13T14:59:43.319Z,64.33
2022-09-13T15:02:20.664Z,67.06
2022-09-13T15:04:52.094Z,64.99
2022-09-13T15:07:35.096Z,65.28
2022-09-13T15:10:20.866Z,65.91
2022-09-13T15:12:53.943Z,68.78
2022-09-13T15:15:35.241Z,67.14
2022-09-13T15:18:06.134Z,68.53
2022-09-13T15:20:56.371Z,68.35
2022-09-13T15:23:28.362Z,69.59
2022-09-13T15:26:04.450Z,70.54
2022-09-13T15:28:34.769Z,70.60
2022-09-13T15:31:02.556Z,69.26
2022-09-13T15:33:31.995Z,69.32
2022-09-13T15:36:17.983Z,69.39
2022-09-13T15:39:02.425Z,70.81
2022-09-13T15:41:35.444Z,72.78
2022-09-13T15:44:04.662Z,74.43
2022-09-13T15:46:34.693Z,81.12
2022-09-13T15:49:04.227Z,83.29
2022-09-13T15:51:35.534Z,86.27
2022-09-13T15:54:12.919Z,87.90
2022-09-13T15:56:43.385Z,89.47
2022-09-13T15:59:21.290Z,95.24
2022-09-13T16:01:50.699Z,96.09
2022-09-13T16:04:18.631Z,94.46
2022-09-13T16:06:46.552Z,95.80
2022-09-13T16:09:24.599Z,95.82
2022-09-13T16:11:52.112Z,94.68
2022-09-13T16:14:22.200Z,94.98
2022-09-13T16:16:49.766Z,95.77
2022-09-13T16:19:20.111Z,97.09
2022-09-13T16:21:49.039Z,98.49
2022-09-13T16:24:16.931Z,97.89
2022-09-13T16:26:44.226Z,98.17
2022-09-13T16:29:12.541Z,100.00
2022-09-13T16:31:39.963Z,100.00
2022-09-13T16:34:07.279Z,100.00
2022-09-13T16:36:34.393Z,100.00
2022-09-13T16:39:01.553Z,100.00
2022-09-13T16:41:28.751Z,100.00
2022-09-13T16:43:57.054Z,100.00
2022-09-13T16:46:24.192Z,100.00
2022-09-13T16:48:55.588Z,100.00
2022-09-13T16:51:24.002Z,100.00
2022-09-13T16:53:52.110Z,100.00
2022-09-13T16:56:22.091Z,100.00
2022-09-13T16:58:50.496Z,100.00
2022-09-13T17:01:23.305Z,100.00
2022-09-13T17:03:54.575Z,100.00
2022-09-13T17:06:23.733Z,100.00
2022-09-13T17:08:56.962Z,100.00
2022-09-13T17:11:26.378Z,100.00
2022-09-13T17:13:54.307Z,100.00
2022-09-13T17:16:41.313Z,100.00
2022-09-13T17:19:13.742Z,100.00
2022-09-13T17:21:40.907Z,100.00
2022-09-13T17:24:13.259Z,100.00
2022-09-13T17:26:46.575Z,100.00
2022-09-13T17:29:14.701Z,100.00
2022-09-13T17:31:43.265Z,100.00
2022-09-13T17:34:11.445Z,100.00
2022-09-13T17:36:39.617Z,100.00
2022-09-13T17:39:07.091Z,100.00
2022-09-13T17:41:34.200Z,100.00
2022-09-13T17:44:01.384Z,100.00
2022-09-13T17:46:30.183Z,100.00
2022-09-13T17:48:59.161Z,100.00
2022-09-13T17:51:29.253Z,100.00
2022-09-13T17:54:00.078Z,100.00
2022-09-13T17:56:29.538Z,100.00
2022-09-13T17:59:05.832Z,100.00
2022-09-13T18:01:38.206Z,100.00
2022-09-13T18:04:06.084Z,100.00
2022-09-13T18:06:33.441Z,100.00
2022-09-13T18:09:00.502Z,100.00
2022-09-13T18:11:27.577Z,100.00
2022-09-13T18:13:54.744Z,100.00
2022-09-13T18:16:25.001Z,100.00
2022-09-13T18:18:53.506Z,100.00
2022-09-13T18:21:23.187Z,100.00
2022-09-13T18:23:52.756Z,100.00
2022-09-13T18:26:22.197Z,100.00
2022-09-13T18:29:04.081Z,100.00
2022-09-13T18:31:32.902Z,100.00
2022-09-13T18:34:02.674Z,100.00
2022-09-13T18:36:31.864Z,100.00
2022-09-13T18:38:59.020Z,100.00
2022-09-13T18:41:29.617Z,100.00
2022-09-13T18:43:57.013Z,100.00
2022-09-13T18:46:26.983Z,100.00
2022-09-13T18:48:57.653Z,100.00
2022-09-13T18:51:29.143Z,100.00
2022-09-13T18:53:58.195Z,100.00
2022-09-13T18:56:26.122Z,100.00
2022-09-13T18:58:54.587Z,100.00
2022-09-13T19:01:24.574Z,100.00
2022-09-13T19:03:58.096Z,100.00
2022-09-13T19:06:31.741Z,100.00
2022-09-13T19:09:00.474Z,100.00
2022-09-13T19:11:48.964Z,100.00
2022-09-13T19:14:23.199Z,100.00
2022-09-13T19:16:52.284Z,100.00
2022-09-13T19:19:19.824Z,100.00
2022-09-13T19:21:47.267Z,100.00
2022-09-13T19:24:19.325Z,100.00
2022-09-13T19:26:51.321Z,100.00
2022-09-13T19:29:21.838Z,100.00
2022-09-13T19:31:50.809Z,100.00
2022-09-13T19:34:19.881Z,100.00
2022-09-13T19:36:49.648Z,100.00
2022-09-13T19:39:17.094Z,100.00
2022-09-13T19:41:44.565Z,100.00
2022-09-13T19:44:13.059Z,100.00
2022-09-13T19:46:41.871Z,100.00
2022-09-13T19:49:13.776Z,100.00
2022-09-13T19:51:42.736Z,100.00
2022-09-13T19:54:12.603Z,100.00
2022-09-13T19:56:43.387Z,100.00
2022-09-13T19:59:13.449Z,100.00
2022-09-13T20:01:44.144Z,100.00
2022-09-13T20:04:14.833Z,100.00
2022-09-13T20:06:46.201Z,100.00
2022-09-13T20:09:15.673Z,100.00
2022-09-13T20:11:47.478Z,100.00
2022-09-13T20:14:18.065Z,100.00
2022-09-13T20:16:46.312Z,100.00
2022-09-13T20:19:39.723Z,100.00
2022-09-13T20:22:07.659Z,100.00
2022-09-13T20:24:35.038Z,100.00
2022-09-13T20:27:02.244Z,100.00
2022-09-13T20:29:29.362Z,100.00
2022-09-13T20:31:56.475Z,100.00
2022-09-13T20:34:23.502Z,100.00
2022-09-13T20:36:50.601Z,100.00
2022-09-13T20:39:17.849Z,100.00
2022-09-13T20:41:45.115Z,100.00
2022-09-13T20:44:12.275Z,100.00
2022-09-13T20:46:40.398Z,100.00
2022-09-13T20:49:09.084Z,100.00
2022-09-13T20:51:37.191Z,100.00
2022-09-13T20:54:05.208Z,100.00
2022-09-13T20:56:34.102Z,100.00
2022-09-13T20:59:01.852Z,100.00
2022-09-13T21:01:31.202Z,100.00
2022-09-13T21:03:59.491Z,100.00
2022-09-13T21:06:29.363Z,100.00
2022-09-13T21:08:59.787Z,100.00
2022-09-13T21:11:32.720Z,100.00
2022-09-13T21:14:02.713Z,100.00
2022-09-13T21:16:41.222Z,100.00
2022-09-13T21:19:09.144Z,100.00
2022-09-13T21:21:39.888Z,100.00
2022-09-13T21:24:09.661Z,100.00
2022-09-13T21:26:41.951Z,100.00
2022-09-13T21:29:10.504Z,100.00
2022-09-13T21:31:38.547Z,100.00
2022-09-13T21:34:08.423Z,100.00
2022-09-13T21:36:35.868Z,100.00
2022-09-13T21:39:04.475Z,100.00
2022-09-13T21:41:32.015Z,100.00
2022-09-13T21:43:59.151Z,100.00
2022-09-13T21:46:28.374Z,100.00
2022-09-13T21:48:59.450Z,100.00
2022-09-13T21:51:29.075Z,100.00
2022-09-13T21:53:59.243Z,100.00
2022-09-13T21:56:28.944Z,100.00
2022-09-13T21:59:00.894Z,100.00
2022-09-13T22:01:31.214Z,100.00
2022-09-13T22:03:59.171Z,100.00
2022-09-13T22:06:30.274Z,100.00
2022-09-13T22:09:06.558Z,100.00
2022-09-13T22:11:38.501Z,100.00
2022-09-13T22:14:07.296Z,100.00
2022-09-13T22:16:37.084Z,100.00
2022-09-13T22:19:20.171Z,100.00
2022-09-13T22:21:50.258Z,100.00
2022-09-13T22:24:20.652Z,100.00
2022-09-13T22:26:49.722Z,100.00
2022-09-13T22:29:17.244Z,100.00
2022-09-13T22:31:46.126Z,100.00
2022-09-13T22:34:15.922Z,100.00
2022-09-13T22:36:43.106Z,100.00
2022-09-13T22:39:15.199Z,100.00
2022-09-13T22:41:43.089Z,100.00
2022-09-13T22:44:10.221Z,100.00
2022-09-13T22:46:40.386Z,100.00
2022-09-13T22:49:07.922Z,100.00
2022-09-13T22:51:34.961Z,100.00
2022-09-13T22:54:06.865Z,100.00
2022-09-13T22:56:36.348Z,100.00
2022-09-13T22:59:09.375Z,100.00
2022-09-13T23:01:37.913Z,100.00
2022-09-13T23:04:05.312Z,100.00
2022-09-13T23:06:33.239Z,100.00
2022-09-13T23:09:01.927Z,100.00
2022-09-13T23:11:39.599Z,100.00
2022-09-13T23:14:10.021Z,100.00
2022-09-13T23:16:45.488Z,100.00
2022-09-13T23:19:13.604Z,100.00
2022-09-13T23:21:41.539Z,100.00
2022-09-13T23:24:12.980Z,100.00
2022-09-13T23:26:40.320Z,100.00
2022-09-13T23:29:07.381Z,100.00
2022-09-13T23:31:38.742Z,100.00
2022-09-13T23:34:07.777Z,100.00
2022-09-13T23:36:37.734Z,100.00
2022-09-13T23:39:07.892Z,100.00
2022-09-13T23:41:35.386Z,100.00
2022-09-13T23:44:03.617Z,100.00
2022-09-13T23:46:31.130Z,100.00
2022-09-13T23:48:58.197Z,100.00
2022-09-13T23:51:26.936Z,100.00
2022-09-13T23:54:00.457Z,100.00
2022-09-13T23:56:30.420Z,100.00
2022-09-13T23:58:59.061Z,100.00
